Time;durP1;ratioP1;P1;durP2;ratioP2;P2;SDS_P1;SDS_P2;PMS_P1;PMS_P2;Temp;Humidity;BMP_temperature;BMP_pressure;BME280_temperature;BME280_humidity;BME280_pressure;Samples;Min_cycle;Max_cycle;Signal;HPM_P1;HPM_P2
2023/05/15 00:01:19;;;;;;;126.83;29.30;;;;;;;12.90;91.77;97707.63;4170922;28;20673;-84
2023/05/15 00:03:22;;;;;;;117.27;29.77;;;;;;;12.89;90.82;97705.97;4171336;28;20641;-84
2023/05/15 00:05:25;;;;;;;137.33;28.57;;;;;;;12.90;91.38;97699.78;4165493;28;20665;-85
2023/05/15 00:07:29;;;;;;;136.90;32.93;;;;;;;12.90;90.11;97699.78;4152790;28;20632;-84
2023/05/15 00:09:32;;;;;;;124.40;29.97;;;;;;;12.82;91.46;97700.44;4166352;28;21957;-84
2023/05/15 00:11:39;;;;;;;133.00;33.80;;;;;;;12.79;90.55;97705.03;4170447;28;20776;-84
2023/05/15 00:13:42;;;;;;;125.90;30.47;;;;;;;12.75;91.07;97695.81;4166040;28;21230;-84
2023/05/15 00:15:45;;;;;;;94.37;25.90;;;;;;;12.69;90.52;97694.53;4174911;28;20665;-84
2023/05/15 00:17:48;;;;;;;114.97;26.00;;;;;;;12.63;90.64;97698.59;4171654;28;20626;-84
2023/05/15 00:19:56;;;;;;;141.97;34.17;;;;;;;12.55;90.45;97690.56;4171816;28;20635;-84
2023/05/15 00:21:59;;;;;;;123.17;28.60;;;;;;;12.51;90.58;97696.97;4158563;28;20698;-84
2023/05/15 00:24:02;;;;;;;131.17;34.53;;;;;;;12.47;91.99;97692.97;4149505;28;20742;-84
2023/05/15 00:26:05;;;;;;;109.63;27.80;;;;;;;12.47;90.96;97699.03;4171351;28;21281;-85
2023/05/15 00:28:10;;;;;;;143.83;32.17;;;;;;;12.49;93.01;97691.88;4169525;28;20635;-84
2023/05/15 00:30:14;;;;;;;118.13;27.57;;;;;;;12.49;93.12;97694.50;4159828;28;21332;-84
2023/05/15 00:32:17;;;;;;;120.57;27.67;;;;;;;12.45;92.43;97698.34;4168497;28;21014;-84
2023/05/15 00:34:21;;;;;;;119.50;28.77;;;;;;;12.45;91.20;97695.72;4171167;28;20625;-84
2023/05/15 00:36:24;;;;;;;136.63;32.97;;;;;;;12.46;92.44;97692.16;4156115;28;20640;-84
2023/05/15 00:38:28;;;;;;;107.53;27.93;;;;;;;12.47;91.18;97695.59;4160915;28;20739;-84
2023/05/15 00:40:32;;;;;;;128.83;31.40;;;;;;;12.47;91.42;97695.59;4173932;28;20949;-84
2023/05/15 00:42:35;;;;;;;125.40;32.80;;;;;;;12.51;92.34;97699.59;4170882;28;20630;-84
2023/05/15 00:44:41;;;;;;;128.47;29.33;;;;;;;12.51;92.63;97700.44;4155572;28;21260;-84
2023/05/15 00:46:45;;;;;;;99.93;25.77;;;;;;;12.53;92.01;97700.31;4154347;28;20662;-84
2023/05/15 00:48:50;;;;;;;144.00;30.87;;;;;;;12.53;92.12;97702.94;4174885;28;20645;-84
2023/05/15 00:50:53;;;;;;;126.57;29.70;;;;;;;12.50;93.10;97703.19;4153613;28;20663;-84
2023/05/15 00:52:57;;;;;;;156.40;27.47;;;;;;;12.47;91.70;97701.66;4159946;28;20665;-84
2023/05/15 00:55:00;;;;;;;108.00;38.70;;;;;;;12.47;93.24;97704.25;4169756;28;20636;-84
2023/05/15 00:57:05;;;;;;;121.67;33.07;;;;;;;12.48;92.59;97705.09;4157985;28;20638;-84
2023/05/15 00:59:10;;;;;;;110.47;31.40;;;;;;;12.48;93.70;97699.84;4154312;28;20680;-84
2023/05/15 01:01:16;;;;;;;112.20;29.37;;;;;;;12.46;92.20;97701.78;4172893;28;20633;-84
2023/05/15 01:03:20;;;;;;;149.77;34.53;;;;;;;12.47;92.29;97704.25;4169871;28;20632;-84
2023/05/15 01:05:23;;;;;;;137.63;31.83;;;;;;;12.47;92.58;97711.28;4171682;28;21096;-85
2023/05/15 01:07:27;;;;;;;127.40;27.07;;;;;;;12.48;93.95;97708.53;4166254;28;20660;-85
2023/05/15 01:09:31;;;;;;;90.97;27.70;;;;;;;12.49;93.35;97715.41;4156606;28;20986;-84
2023/05/15 01:11:35;;;;;;;122.70;33.30;;;;;;;12.49;93.58;97714.59;4173711;28;20666;-84
2023/05/15 01:13:39;;;;;;;140.17;29.23;;;;;;;12.48;92.55;97708.53;4148952;28;20646;-84
2023/05/15 01:15:42;;;;;;;121.50;30.37;;;;;;;12.46;92.88;97704.38;4182717;28;20652;-84
2023/05/15 01:17:47;;;;;;;147.97;32.17;;;;;;;12.45;93.26;97707.97;4168417;28;20630;-84
2023/05/15 01:19:52;;;;;;;164.97;31.43;;;;;;;12.46;93.86;97712.22;4170261;28;20669;-84
2023/05/15 01:22:21;;;;;;;127.67;29.97;;;;;;;12.44;93.09;97714.16;4174872;28;20694;-85
2023/05/15 01:24:40;;;;;;;136.07;33.70;;;;;;;12.44;94.36;97712.34;4171514;28;20659;-84
2023/05/15 01:26:55;;;;;;;138.27;26.53;;;;;;;12.45;94.05;97713.22;4170773;28;21105;-84
2023/05/15 01:29:03;;;;;;;150.87;32.73;;;;;;;12.45;94.16;97713.22;4170381;28;20790;-84
2023/05/15 01:31:12;;;;;;;145.87;35.73;;;;;;;12.43;93.69;97712.47;4152551;28;20754;-84
2023/05/15 01:33:18;;;;;;;131.10;30.07;;;;;;;12.39;95.23;97701.44;4169500;28;20649;-84
2023/05/15 01:35:27;;;;;;;124.23;33.13;;;;;;;12.40;95.69;97708.34;4169572;28;21167;-84
2023/05/15 01:37:32;;;;;;;167.37;32.07;;;;;;;12.39;95.70;97700.63;4174324;28;20620;-84
2023/05/15 01:39:35;;;;;;;152.47;34.37;;;;;;;12.39;93.47;97708.47;4149697;28;20638;-84
2023/05/15 01:41:42;;;;;;;158.70;35.53;;;;;;;12.39;95.25;97708.47;4172950;28;21197;-85
2023/05/15 01:43:46;;;;;;;153.93;28.97;;;;;;;12.40;95.02;97702.28;4161022;28;21255;-84
2023/05/15 01:45:50;;;;;;;112.83;30.17;;;;;;;12.41;95.77;97701.31;4158442;28;20635;-84
2023/05/15 01:47:54;;;;;;;125.43;26.73;;;;;;;12.42;94.63;97700.38;4169238;28;20645;-84
2023/05/15 01:49:59;;;;;;;132.63;33.63;;;;;;;12.42;94.84;97695.16;4172827;28;20640;-84
2023/05/15 01:52:06;;;;;;;130.37;32.23;;;;;;;12.43;93.65;97697.63;4173444;28;20653;-84
2023/05/15 01:54:10;;;;;;;126.30;30.40;;;;;;;12.41;93.75;97710.00;4171775;28;21209;-84
2023/05/15 01:56:14;;;;;;;131.13;32.30;;;;;;;12.39;92.41;97705.88;4173093;28;21181;-84
2023/05/15 01:58:18;;;;;;;121.60;31.37;;;;;;;12.35;93.13;97702.66;4165402;28;20734;-84
2023/05/15 02:00:22;;;;;;;192.47;38.23;;;;;;;12.34;92.99;97714.09;4156420;28;20630;-84
2023/05/15 02:02:29;;;;;;;117.20;30.73;;;;;;;12.35;94.03;97712.28;4176385;28;20733;-84
2023/05/15 02:04:33;;;;;;;140.73;34.03;;;;;;;12.34;94.93;97708.00;4160000;28;20643;-84
2023/05/15 02:06:37;;;;;;;103.30;28.80;;;;;;;12.35;93.87;97709.66;4167465;28;20788;-84
2023/05/15 02:08:41;;;;;;;129.40;27.77;;;;;;;12.33;94.71;97704.56;4172719;28;20646;-84
2023/05/15 02:10:44;;;;;;;127.50;33.27;;;;;;;12.35;93.40;97704.44;4168222;28;21012;-86
2023/05/15 02:12:48;;;;;;;127.97;34.63;;;;;;;12.34;94.00;97708.00;4171193;28;21076;-85
2023/05/15 02:14:52;;;;;;;137.70;28.03;;;;;;;12.32;92.96;97709.91;4152054;28;21000;-85
2023/05/15 02:16:56;;;;;;;150.33;30.80;;;;;;;12.31;93.30;97703.00;4156084;28;20636;-85
2023/05/15 02:19:00;;;;;;;121.97;33.37;;;;;;;12.29;94.56;97705.75;4165182;28;21114;-85
2023/05/15 02:21:03;;;;;;;113.10;29.80;;;;;;;12.30;93.99;97711.84;4169183;28;21077;-85
2023/05/15 02:23:06;;;;;;;130.73;33.23;;;;;;;12.33;94.58;97714.22;4170720;28;20637;-85
2023/05/15 02:25:10;;;;;;;145.10;32.40;;;;;;;12.34;94.18;97708.00;4168669;28;20637;-85
2023/05/15 02:27:16;;;;;;;146.23;30.13;;;;;;;12.36;94.94;97716.56;4160751;28;20656;-85
2023/05/15 02:29:21;;;;;;;144.50;31.73;;;;;;;12.36;93.72;97711.34;4165024;28;20657;-84
2023/05/15 02:31:32;;;;;;;144.23;35.80;;;;;;;12.34;93.27;97711.47;4169969;28;20742;-84
2023/05/15 02:33:40;;;;;;;157.43;30.10;;;;;;;12.35;93.86;97712.28;4148659;28;20675;-84
2023/05/15 02:35:49;;;;;;;123.80;28.50;;;;;;;12.35;94.07;97710.50;4150823;28;20623;-85
2023/05/15 02:37:54;;;;;;;134.97;32.13;;;;;;;12.35;93.98;97710.50;4159897;28;20616;-84
2023/05/15 02:39:58;;;;;;;105.03;31.03;;;;;;;12.37;94.99;97715.59;4170949;28;20639;-84
2023/05/15 02:42:01;;;;;;;105.67;30.57;;;;;;;12.37;94.88;97711.22;4165040;28;20676;-84
2023/05/15 02:44:05;;;;;;;130.40;28.07;;;;;;;12.36;94.30;97719.19;4163585;28;20632;-84
2023/05/15 02:46:09;;;;;;;132.93;35.07;;;;;;;12.37;93.99;97719.06;4153723;28;20647;-84
2023/05/15 02:48:12;;;;;;;135.10;35.50;;;;;;;12.35;94.68;97712.28;4155533;28;20733;-85
2023/05/15 02:50:16;;;;;;;145.13;29.30;;;;;;;12.32;93.71;97707.31;4167742;28;20650;-84
2023/05/15 02:52:20;;;;;;;136.97;30.67;;;;;;;12.28;95.45;97708.50;4165131;28;20713;-84
2023/05/15 02:54:23;;;;;;;110.13;28.37;;;;;;;12.26;94.82;97707.81;4170832;28;20638;-84
2023/05/15 02:56:26;;;;;;;123.17;31.13;;;;;;;12.26;93.84;97705.19;4154386;28;20659;-84
2023/05/15 02:58:29;;;;;;;151.10;35.73;;;;;;;12.24;94.42;97712.34;4155679;28;20631;-84
2023/05/15 03:00:32;;;;;;;150.33;35.67;;;;;;;12.23;94.69;97708.88;4152938;28;20637;-84
2023/05/15 03:02:35;;;;;;;147.73;33.87;;;;;;;12.22;95.79;97709.00;4171436;28;21247;-84
2023/05/15 03:04:39;;;;;;;100.70;26.90;;;;;;;12.23;95.99;97716.72;4157973;28;20635;-84
2023/05/15 03:06:42;;;;;;;111.87;27.87;;;;;;;12.22;96.20;97710.78;4167308;28;21091;-85
2023/05/15 03:08:46;;;;;;;125.80;28.10;;;;;;;12.20;94.77;97707.47;4158318;28;20664;-84
2023/05/15 03:10:49;;;;;;;137.63;33.07;;;;;;;12.19;94.66;97711.84;4167398;28;21231;-84
2023/05/15 03:12:52;;;;;;;97.17;29.50;;;;;;;12.16;95.71;97714.72;4166605;28;20654;-84
2023/05/15 03:14:56;;;;;;;180.47;33.50;;;;;;;12.14;95.29;97711.41;4156049;28;20642;-84
2023/05/15 03:16:59;;;;;;;146.40;29.20;;;;;;;12.12;94.79;97715.09;4167213;28;20635;-84
2023/05/15 03:19:03;;;;;;;149.53;29.43;;;;;;;12.10;95.76;97720.44;4154905;28;20650;-84
2023/05/15 03:21:06;;;;;;;121.03;34.10;;;;;;;12.08;95.50;97711.91;4168394;28;20626;-84
2023/05/15 03:23:09;;;;;;;137.53;27.10;;;;;;;12.09;96.14;97713.56;4148211;28;20651;-84
2023/05/15 03:25:13;;;;;;;133.70;29.07;;;;;;;12.07;95.96;97705.03;4168044;28;20699;-84
2023/05/15 03:27:16;;;;;;;133.17;29.77;;;;;;;12.10;94.55;97709.97;4164982;28;20729;-84
2023/05/15 03:29:20;;;;;;;142.43;33.47;;;;;;;12.12;94.48;97710.72;4148619;28;21217;-84
2023/05/15 03:31:23;;;;;;;159.77;32.20;;;;;;;12.12;94.61;97715.94;4165521;28;21216;-84
2023/05/15 03:33:26;;;;;;;135.43;32.67;;;;;;;12.14;95.73;97711.41;4170133;28;20681;-84
2023/05/15 03:35:29;;;;;;;149.33;37.37;;;;;;;12.11;95.72;97706.41;4168542;28;21999;-84
2023/05/15 03:37:32;;;;;;;141.60;31.90;;;;;;;12.08;94.63;97706.66;4153299;28;20626;-84
2023/05/15 03:39:36;;;;;;;153.30;29.40;;;;;;;12.04;94.10;97704.41;4155465;28;20700;-84
2023/05/15 03:41:41;;;;;;;131.90;36.30;;;;;;;12.01;94.57;97702.06;4167384;28;20989;-84
2023/05/15 03:43:44;;;;;;;141.53;33.47;;;;;;;11.98;94.80;97707.53;4157327;28;21500;-84
2023/05/15 03:45:47;;;;;;;116.30;33.87;;;;;;;11.96;94.75;97706.81;4170935;28;20991;-84
2023/05/15 03:47:50;;;;;;;112.97;28.20;;;;;;;11.95;93.86;97706.00;4165760;28;21275;-84
2023/05/15 03:49:53;;;;;;;120.30;34.20;;;;;;;11.95;94.01;97706.00;4170894;28;20629;-84
2023/05/15 03:51:57;;;;;;;132.63;33.70;;;;;;;11.98;95.93;97716.22;4156413;28;20644;-84
2023/05/15 03:54:00;;;;;;;125.03;32.00;;;;;;;11.97;94.58;97703.28;4159603;28;20741;-85
2023/05/15 03:56:03;;;;;;;145.77;32.97;;;;;;;11.97;94.34;97705.88;4154308;28;20638;-84
2023/05/15 03:58:08;;;;;;;137.23;29.93;;;;;;;11.96;94.26;97702.41;4166333;28;20715;-84
2023/05/15 04:00:12;;;;;;;133.27;28.23;;;;;;;11.97;93.79;97704.09;4170180;28;20673;-84
2023/05/15 04:02:15;;;;;;;120.93;29.87;;;;;;;11.99;95.48;97712.63;4167593;28;21210;-84
2023/05/15 04:04:18;;;;;;;143.03;31.03;;;;;;;12.01;95.66;97708.13;4166011;28;21233;-84
2023/05/15 04:06:21;;;;;;;150.90;33.77;;;;;;;12.02;93.52;97701.09;4165935;28;20680;-84
2023/05/15 04:08:25;;;;;;;146.40;27.53;;;;;;;12.00;94.14;97703.84;4152827;28;21868;-84
2023/05/15 04:10:28;;;;;;;101.50;27.20;;;;;;;11.99;95.59;97704.78;4166559;28;20630;-84
2023/05/15 04:12:32;;;;;;;117.93;29.77;;;;;;;12.00;94.81;97708.25;4147929;28;21273;-84
2023/05/15 04:14:37;;;;;;;140.10;35.80;;;;;;;12.02;94.90;97715.00;4163419;28;20635;-84
2023/05/15 04:16:40;;;;;;;135.03;31.73;;;;;;;12.02;95.11;97711.56;4167782;28;20687;-84
2023/05/15 04:18:43;;;;;;;127.53;28.63;;;;;;;12.04;94.05;97718.34;4165177;28;20717;-84
2023/05/15 04:20:46;;;;;;;116.30;28.63;;;;;;;12.03;94.93;97718.47;4170381;28;21282;-84
2023/05/15 04:22:50;;;;;;;133.40;29.73;;;;;;;12.01;93.64;97715.13;4164997;28;21268;-84
2023/05/15 04:24:53;;;;;;;121.20;31.37;;;;;;;12.04;93.44;97726.19;4146561;28;20630;-84
2023/05/15 04:26:56;;;;;;;163.30;35.50;;;;;;;12.07;95.37;97723.31;4166974;28;20697;-84
2023/05/15 04:28:59;;;;;;;153.23;35.97;;;;;;;12.09;95.69;97723.16;4164872;28;21000;-84
2023/05/15 04:31:08;;;;;;;141.27;28.97;;;;;;;12.09;93.52;97729.25;4165468;28;20652;-84
2023/05/15 04:33:11;;;;;;;152.30;31.33;;;;;;;12.12;95.40;97723.78;4163444;28;20680;-84
2023/05/15 04:35:14;;;;;;;140.97;30.27;;;;;;;12.15;94.32;97725.28;4168115;28;21225;-84
2023/05/15 04:37:17;;;;;;;128.20;28.60;;;;;;;12.16;95.16;97725.16;4157695;28;20657;-84
2023/05/15 04:39:22;;;;;;;139.13;31.23;;;;;;;12.15;94.89;97730.53;4160626;28;20769;-84
2023/05/15 04:41:25;;;;;;;115.87;26.27;;;;;;;12.12;93.62;97722.94;4160081;28;21054;-84
2023/05/15 04:43:28;;;;;;;142.10;31.73;;;;;;;12.11;95.37;97722.09;4155594;28;21209;-84
2023/05/15 04:45:31;;;;;;;134.77;28.60;;;;;;;12.12;95.23;97721.16;4167044;28;20629;-84
2023/05/15 04:47:36;;;;;;;161.50;36.27;;;;;;;12.13;93.76;97725.41;4162681;28;20661;-84
2023/05/15 04:49:39;;;;;;;162.87;29.57;;;;;;;12.20;94.72;97721.38;4163161;28;20638;-84
2023/05/15 04:51:42;;;;;;;108.67;29.03;;;;;;;12.23;94.14;97726.34;4159107;28;20635;-83
2023/05/15 04:53:46;;;;;;;105.87;28.83;;;;;;;12.27;93.50;97718.13;4162459;28;21000;-83
2023/05/15 04:55:50;;;;;;;99.60;25.00;;;;;;;12.30;94.43;97722.28;4169333;28;20641;-83
2023/05/15 04:57:53;;;;;;;126.73;33.80;;;;;;;12.35;92.80;97727.97;4169685;28;21389;-83
2023/05/15 04:59:56;;;;;;;115.10;33.67;;;;;;;12.39;93.41;97724.16;4174492;28;20631;-83
2023/05/15 05:02:00;;;;;;;153.97;29.70;;;;;;;12.44;93.40;97730.66;4169497;28;20629;-83
2023/05/15 05:04:04;;;;;;;114.00;28.77;;;;;;;12.52;94.45;97730.03;4159109;28;20629;-83
2023/05/15 05:06:08;;;;;;;122.83;27.23;;;;;;;12.60;94.13;97725.00;4167125;28;20692;-84
2023/05/15 05:08:11;;;;;;;111.50;32.50;;;;;;;12.68;94.63;97727.84;4168963;28;20730;-84
2023/05/15 05:10:14;;;;;;;125.57;34.90;;;;;;;12.76;95.55;97737.56;4156979;28;20620;-83
2023/05/15 05:12:17;;;;;;;137.63;26.57;;;;;;;12.84;94.95;97736.97;4169607;28;20642;-83
2023/05/15 05:14:20;;;;;;;148.77;31.43;;;;;;;12.89;95.50;97742.63;4167687;28;20657;-83
2023/05/15 05:16:23;;;;;;;132.03;32.50;;;;;;;12.90;94.90;97745.13;4170970;28;20707;-84
2023/05/15 05:18:26;;;;;;;156.93;37.40;;;;;;;12.92;94.55;97745.81;4182093;28;21205;-83
2023/05/15 05:20:31;;;;;;;105.13;30.63;;;;;;;12.97;95.52;97743.63;4164590;28;21471;-83
2023/05/15 05:22:34;;;;;;;101.07;31.87;;;;;;;13.04;94.73;97752.66;4172287;28;20666;-83
2023/05/15 05:24:37;;;;;;;131.67;27.37;;;;;;;13.08;95.55;97758.44;4169578;28;20621;-83
2023/05/15 05:26:43;;;;;;;106.70;30.87;;;;;;;13.12;95.69;97744.97;4156000;28;20857;-82
2023/05/15 05:28:46;;;;;;;118.83;27.80;;;;;;;13.15;94.93;97752.56;4169107;28;20671;-82
2023/05/15 05:30:49;;;;;;;109.50;26.07;;;;;;;13.18;95.05;97749.69;4172034;28;20630;-83
2023/05/15 05:32:52;;;;;;;135.13;29.03;;;;;;;13.18;94.92;97753.16;4164087;28;21215;-82
2023/05/15 05:34:55;;;;;;;128.63;32.73;;;;;;;13.18;94.73;97752.31;4162329;28;20640;-83
2023/05/15 05:37:00;;;;;;;128.37;29.67;;;;;;;13.20;93.82;97764.34;4169187;28;21438;-82
2023/05/15 05:39:04;;;;;;;98.77;27.27;;;;;;;13.20;94.48;97751.25;4167945;28;20630;-82
2023/05/15 05:41:07;;;;;;;128.47;30.80;;;;;;;13.24;93.79;97751.81;4172094;28;21265;-83
2023/05/15 05:43:10;;;;;;;119.83;32.03;;;;;;;13.28;94.08;97748.78;4170944;28;20638;-82
2023/05/15 05:45:13;;;;;;;104.90;30.77;;;;;;;13.36;93.75;97750.78;4170871;28;20628;-83
2023/05/15 05:47:16;;;;;;;119.47;32.60;;;;;;;13.45;93.19;97753.44;4166410;28;20632;-83
2023/05/15 05:49:19;;;;;;;84.63;29.20;;;;;;;13.57;93.92;97762.03;4168748;28;20687;-83
2023/05/15 05:51:22;;;;;;;131.63;28.07;;;;;;;13.61;92.79;97761.66;4168612;28;20678;-81
2023/05/15 05:53:27;;;;;;;103.33;28.80;;;;;;;13.67;93.48;97769.81;4166434;28;20631;-82
2023/05/15 05:55:30;;;;;;;103.17;30.47;;;;;;;13.73;93.10;97769.28;4164024;28;20641;-81
2023/05/15 05:57:33;;;;;;;113.27;27.63;;;;;;;13.82;93.20;97767.69;4167388;28;20642;-81
2023/05/15 05:59:37;;;;;;;122.73;29.77;;;;;;;13.94;93.22;97772.69;4164435;28;20639;-81
2023/05/15 06:01:40;;;;;;;100.53;24.33;;;;;;;14.01;93.48;97763.34;4170185;28;20738;-81
2023/05/15 06:03:43;;;;;;;112.03;30.43;;;;;;;14.19;92.62;97774.84;4177579;28;20645;-82
2023/05/15 06:05:47;;;;;;;111.13;28.33;;;;;;;14.44;93.17;97775.19;4173598;28;20670;-82
2023/05/15 06:07:51;;;;;;;106.13;30.07;;;;;;;14.56;91.26;97768.03;4176354;28;20666;-81
2023/05/15 06:09:55;;;;;;;108.00;28.23;;;;;;;14.77;91.56;97773.00;4175790;28;20634;-82
2023/05/15 06:11:59;;;;;;;127.60;26.67;;;;;;;15.18;91.55;97775.34;4175277;28;20623;-81
2023/05/15 06:14:02;;;;;;;111.67;32.40;;;;;;;15.58;87.82;97774.97;4171098;28;20663;-81
2023/05/15 06:16:06;;;;;;;98.17;24.50;;;;;;;15.93;88.79;97788.28;4173221;28;20642;-81
2023/05/15 06:18:09;;;;;;;89.40;20.77;;;;;;;16.23;86.55;97788.84;4173182;28;20643;-81
2023/05/15 06:20:13;;;;;;;63.37;16.87;;;;;;;16.47;84.28;97796.22;4173085;28;20671;-82
2023/05/15 06:22:16;;;;;;;87.43;25.50;;;;;;;16.72;84.66;97799.78;4171583;28;20624;-82
2023/05/15 06:24:19;;;;;;;68.20;21.27;;;;;;;16.91;83.25;97801.44;4158652;28;20652;-82
2023/05/15 06:26:24;;;;;;;76.30;24.87;;;;;;;16.88;83.17;97788.56;4174421;28;21057;-81
2023/05/15 06:28:27;;;;;;;70.80;21.00;;;;;;;16.94;85.31;97798.50;4173662;28;20729;-81
2023/05/15 06:30:30;;;;;;;69.67;20.90;;;;;;;17.00;84.50;97796.94;4156086;28;21816;-82
2023/05/15 06:32:33;;;;;;;72.13;18.83;;;;;;;17.03;84.00;97788.72;4175185;28;20623;-82
2023/05/15 06:34:36;;;;;;;88.97;24.10;;;;;;;16.98;84.25;97793.59;4172784;28;20657;-82
2023/05/15 06:36:40;;;;;;;91.87;26.03;;;;;;;16.80;82.34;97783.22;4170854;28;20630;-82
2023/05/15 06:38:43;;;;;;;106.80;25.87;;;;;;;16.65;83.90;97788.16;4166093;28;20622;-82
2023/05/15 06:40:46;;;;;;;86.70;26.10;;;;;;;16.57;83.20;97788.09;4162604;28;20639;-82
2023/05/15 06:42:50;;;;;;;107.53;23.90;;;;;;;16.50;83.10;97792.28;4167839;28;20637;-82
2023/05/15 06:44:54;;;;;;;74.63;21.07;;;;;;;16.53;84.09;97797.25;4172600;28;20714;-83
2023/05/15 06:46:57;;;;;;;86.50;24.60;;;;;;;16.70;85.48;97790.34;4170205;28;20644;-82
2023/05/15 06:49:00;;;;;;;84.70;26.80;;;;;;;16.71;85.98;97792.03;4170519;28;21188;-82
2023/05/15 06:51:03;;;;;;;86.73;21.63;;;;;;;17.03;86.44;97796.63;4170379;28;21201;-82
2023/05/15 06:53:09;;;;;;;96.90;22.10;;;;;;;17.50;83.68;97804.13;4172950;28;20638;-82
2023/05/15 06:55:15;;;;;;;75.43;24.13;;;;;;;17.81;81.76;97800.03;4178878;28;20657;-82
2023/05/15 06:57:18;;;;;;;104.87;23.53;;;;;;;18.17;82.28;97814.78;4155377;28;20653;-82
2023/05/15 06:59:23;;;;;;;70.77;19.43;;;;;;;18.45;81.72;97812.59;4166157;28;20763;-82
2023/05/15 07:01:26;;;;;;;63.23;19.93;;;;;;;18.67;79.09;97816.44;4167340;28;21194;-82
2023/05/15 07:03:29;;;;;;;67.10;22.70;;;;;;;18.77;79.00;97811.84;4168468;28;20640;-82
2023/05/15 07:05:32;;;;;;;83.70;20.77;;;;;;;18.97;78.38;97819.31;4172575;28;21224;-82
2023/05/15 07:07:35;;;;;;;58.00;18.27;;;;;;;19.19;79.23;97816.91;4163954;28;20667;-82
2023/05/15 07:09:38;;;;;;;69.03;22.03;;;;;;;19.32;75.99;97811.97;4175791;28;21245;-82
2023/05/15 07:11:41;;;;;;;80.07;22.43;;;;;;;19.36;76.50;97807.97;4168518;28;20681;-81
2023/05/15 07:13:45;;;;;;;90.40;23.30;;;;;;;19.10;78.06;97795.91;4170809;28;21076;-83
2023/05/15 07:15:49;;;;;;;51.00;19.70;;;;;;;18.92;78.44;97803.13;4169162;28;20651;-82
2023/05/15 07:17:52;;;;;;;81.37;18.70;;;;;;;19.02;78.86;97791.44;4167114;28;20704;-83
2023/05/15 07:19:56;;;;;;;74.47;24.47;;;;;;;18.95;80.01;97794.88;4170219;28;20652;-82
2023/05/15 07:21:59;;;;;;;77.77;21.40;;;;;;;19.00;79.37;97800.47;4168124;28;20644;-82
2023/05/15 07:24:05;;;;;;;52.73;22.27;;;;;;;19.27;77.54;97793.09;4170184;28;20615;-83
2023/05/15 07:26:08;;;;;;;51.47;18.77;;;;;;;19.53;78.21;97797.22;4172449;28;20976;-82
2023/05/15 07:28:18;;;;;;;70.67;21.47;;;;;;;19.50;76.14;97796.72;4161386;28;21284;-82
2023/05/15 07:30:22;;;;;;;74.90;20.70;;;;;;;19.72;75.43;97796.03;4161368;28;21332;-82
2023/05/15 07:32:27;;;;;;;81.20;20.77;;;;;;;20.10;80.06;97802.28;4168595;28;20629;-82
2023/05/15 07:34:30;;;;;;;81.13;20.80;;;;;;;20.29;76.07;97806.34;4168314;28;20651;-82
2023/05/15 07:36:33;;;;;;;90.10;26.83;;;;;;;20.46;72.06;97804.28;4151439;28;20714;-82
2023/05/15 07:38:36;;;;;;;83.73;22.70;;;;;;;20.64;76.73;97810.19;4162550;28;20631;-82
2023/05/15 07:40:39;;;;;;;93.87;22.33;;;;;;;20.90;75.70;97805.41;4168845;28;21219;-82
2023/05/15 07:42:43;;;;;;;89.90;22.87;;;;;;;20.98;74.79;97805.34;4166958;28;20679;-82
2023/05/15 07:44:47;;;;;;;69.53;24.80;;;;;;;21.03;74.74;97805.66;4140383;28;21231;-82
2023/05/15 07:46:55;;;;;;;65.53;17.93;;;;;;;20.74;73.71;97792.25;4163975;28;20667;-82
2023/05/15 07:48:59;;;;;;;75.83;19.37;;;;;;;20.45;74.03;97783.25;4162153;28;20633;-82
2023/05/15 07:51:02;;;;;;;61.83;19.93;;;;;;;20.56;74.02;97791.63;4157482;28;21279;-82
2023/05/15 07:53:05;;;;;;;78.67;20.10;;;;;;;20.70;73.50;97787.47;4163404;28;20989;-82
2023/05/15 07:55:09;;;;;;;50.07;17.33;;;;;;;21.01;73.10;97799.69;4171402;28;20722;-82
2023/05/15 07:57:12;;;;;;;64.43;19.40;;;;;;;21.20;73.48;97791.25;4156535;28;20628;-82
2023/05/15 07:59:16;;;;;;;76.70;24.57;;;;;;;21.33;73.08;97789.66;4170106;28;20644;-82
2023/05/15 08:01:19;;;;;;;69.47;19.60;;;;;;;21.43;74.10;97791.06;4165290;28;20629;-82
2023/05/15 08:03:22;;;;;;;77.67;22.70;;;;;;;21.54;72.42;97795.16;4157900;28;21393;-82
2023/05/15 08:05:27;;;;;;;59.87;18.13;;;;;;;21.79;75.06;97797.41;4173252;28;20657;-82
2023/05/15 08:07:31;;;;;;;69.27;22.03;;;;;;;22.00;71.68;97800.19;4161934;28;20675;-82
2023/05/15 08:09:34;;;;;;;52.40;19.03;;;;;;;21.96;71.13;97794.41;4166340;28;20989;-83
2023/05/15 08:11:37;;;;;;;67.40;20.53;;;;;;;21.70;73.37;97787.06;4159609;28;20732;-82
2023/05/15 08:13:40;;;;;;;62.67;18.60;;;;;;;21.86;74.99;97785.03;4148451;28;20643;-83
2023/05/15 08:15:44;;;;;;;66.87;20.77;;;;;;;22.06;73.47;97800.28;4161173;28;20692;-83
2023/05/15 08:17:47;;;;;;;44.07;23.37;;;;;;;22.07;71.69;97791.31;4161999;28;20619;-83
2023/05/15 08:19:50;;;;;;;61.87;18.90;;;;;;;21.96;71.01;97785.59;4167810;28;20672;-83
2023/05/15 08:21:55;;;;;;;54.40;15.20;;;;;;;21.62;69.46;97776.50;4161021;28;20645;-83
2023/05/15 08:23:59;;;;;;;69.30;17.07;;;;;;;21.39;70.49;97779.19;4166528;28;21243;-83
2023/05/15 08:26:03;;;;;;;61.30;19.47;;;;;;;21.23;69.84;97773.19;4144449;28;20701;-83
2023/05/15 08:28:06;;;;;;;47.37;16.03;;;;;;;21.48;70.55;97777.28;4160471;28;20648;-83
2023/05/15 08:30:10;;;;;;;85.07;18.70;;;;;;;21.76;71.77;97780.00;4145490;28;20651;-83
2023/05/15 08:32:13;;;;;;;76.93;16.13;;;;;;;22.03;70.86;97778.56;4170664;28;21022;-83
2023/05/15 08:34:16;;;;;;;68.80;15.20;;;;;;;22.13;69.81;97779.09;4147376;28;20643;-83
2023/05/15 08:36:20;;;;;;;65.80;20.27;;;;;;;21.93;70.54;97775.34;4167467;28;20994;-83
2023/05/15 08:38:25;;;;;;;84.07;21.43;;;;;;;21.92;69.11;97771.03;4169931;28;20733;-83
2023/05/15 08:40:28;;;;;;;69.23;20.70;;;;;;;22.06;73.09;97767.56;4169838;28;21269;-83
2023/05/15 08:42:40;;;;;;;91.03;21.20;;;;;;;22.13;70.58;97766.66;4172765;28;20630;-83
2023/05/15 08:44:43;;;;;;;52.13;16.77;;;;;;;21.98;70.51;97765.84;4158546;28;20763;-83
2023/05/15 08:46:47;;;;;;;80.37;19.83;;;;;;;21.92;69.20;97766.56;4158063;28;20656;-83
2023/05/15 08:48:53;;;;;;;85.27;19.47;;;;;;;21.58;69.13;97760.09;4163184;28;20637;-83
2023/05/15 08:50:57;;;;;;;77.30;20.07;;;;;;;21.44;69.43;97752.06;4161888;28;20622;-83
2023/05/15 08:53:00;;;;;;;64.83;17.20;;;;;;;21.69;69.70;97759.66;4174799;28;21287;-82
2023/05/15 08:55:06;;;;;;;65.30;18.67;;;;;;;21.91;68.14;97761.44;4171455;28;20724;-83
2023/05/15 08:57:09;;;;;;;75.43;17.40;;;;;;;22.06;66.76;97756.94;4168697;28;20623;-83
2023/05/15 08:59:13;;;;;;;65.10;20.47;;;;;;;22.29;66.95;97766.47;4170002;28;20630;-83
2023/05/15 09:01:16;;;;;;;57.07;18.83;;;;;;;22.31;65.46;97762.63;4170456;28;21208;-83
2023/05/15 09:03:23;;;;;;;61.77;16.73;;;;;;;22.33;67.66;97768.59;4172748;28;20645;-83
2023/05/15 09:05:26;;;;;;;51.30;17.73;;;;;;;22.36;67.33;97762.09;4156484;28;20656;-83
2023/05/15 09:07:30;;;;;;;65.63;22.83;;;;;;;22.44;65.68;97752.16;4169715;28;20640;-83
2023/05/15 09:09:34;;;;;;;64.00;18.57;;;;;;;22.51;67.13;97757.56;4167302;28;20696;-83
2023/05/15 09:11:39;;;;;;;61.30;19.23;;;;;;;22.51;64.91;97749.59;4169697;28;20638;-83
2023/05/15 09:13:42;;;;;;;63.50;16.13;;;;;;;22.48;66.16;97748.13;4164335;28;20689;-83
2023/05/15 09:15:46;;;;;;;43.90;15.33;;;;;;;22.48;65.76;97742.81;4128489;28;20654;-83
2023/05/15 09:17:50;;;;;;;52.50;15.23;;;;;;;22.40;64.38;97740.25;4153101;28;20727;-83
2023/05/15 09:19:53;;;;;;;45.80;15.97;;;;;;;22.48;66.29;97748.13;4144801;28;20676;-83
2023/05/15 09:22:15;;;;;;;64.67;18.57;;;;;;;22.58;64.52;97731.88;4170908;28;20637;-83
2023/05/15 09:24:22;;;;;;;53.50;14.63;;;;;;;22.68;66.26;97741.19;4142254;28;20647;-83
2023/05/15 09:26:25;;;;;;;67.43;12.90;;;;;;;22.78;67.67;97729.22;4143778;28;20643;-83